sensor_id;sensor_type;location;lat;lon;timestamp;temperature;humidity
18511;DHT22;9384;48.044;11.616;2022-11-23T00:01:27;3.60;99.90
18511;DHT22;9384;48.044;11.616;2022-11-23T00:03:55;3.60;99.90
18511;DHT22;9384;48.044;11.616;2022-11-23T00:06:23;3.60;99.90
18511;DHT22;9384;48.044;11.616;2022-11-23T00:08:52;3.60;99.90
18511;DHT22;9384;48.044;11.616;2022-11-23T00:11:20;3.50;99.90
18511;DHT22;9384;48.044;11.616;2022-11-23T00:13:47;3.60;99.90
18511;DHT22;9384;48.044;11.616;2022-11-23T00:16:15;3.60;99.90
18511;DHT22;9384;48.044;11.616;2022-11-23T00:18:44;3.60;99.90
18511;DHT22;9384;48.044;11.616;2022-11-23T00:21:12;3.70;99.90
18511;DHT22;9384;48.044;11.616;2022-11-23T00:23:39;3.70;99.90
18511;DHT22;9384;48.044;11.616;2022-11-23T00:26:07;3.70;99.90
18511;DHT22;9384;48.044;11.616;2022-11-23T00:28:34;3.60;99.90
18511;DHT22;9384;48.044;11.616;2022-11-23T00:31:04;3.60;99.90
18511;DHT22;9384;48.044;11.616;2022-11-23T00:33:31;3.60;99.90
18511;DHT22;9384;48.044;11.616;2022-11-23T00:35:59;3.60;99.90
18511;DHT22;9384;48.044;11.616;2022-11-23T00:38:27;3.60;99.90
18511;DHT22;9384;48.044;11.616;2022-11-23T00:40:58;3.60;99.90
18511;DHT22;9384;48.044;11.616;2022-11-23T00:43:25;3.60;99.90
18511;DHT22;9384;48.044;11.616;2022-11-23T00:46:02;3.60;99.90
18511;DHT22;9384;48.044;11.616;2022-11-23T00:48:29;3.70;99.90
18511;DHT22;9384;48.044;11.616;2022-11-23T00:50:56;3.70;99.90
18511;DHT22;9384;48.044;11.616;2022-11-23T00:53:24;3.70;99.90
18511;DHT22;9384;48.044;11.616;2022-11-23T00:55:51;3.70;99.90
18511;DHT22;9384;48.044;11.616;2022-11-23T00:58:18;3.80;99.90
18511;DHT22;9384;48.044;11.616;2022-11-23T01:00:45;3.80;99.90
18511;DHT22;9384;48.044;11.616;2022-11-23T01:03:12;3.80;99.90
18511;DHT22;9384;48.044;11.616;2022-11-23T01:05:39;3.80;99.90
18511;DHT22;9384;48.044;11.616;2022-11-23T01:08:06;3.80;99.90
18511;DHT22;9384;48.044;11.616;2022-11-23T01:10:35;3.80;99.90
18511;DHT22;9384;48.044;11.616;2022-11-23T01:13:02;3.90;99.90
18511;DHT22;9384;48.044;11.616;2022-11-23T01:15:28;3.80;99.90
18511;DHT22;9384;48.044;11.616;2022-11-23T01:17:55;3.90;99.90
18511;DHT22;9384;48.044;11.616;2022-11-23T01:20:22;3.80;99.90
18511;DHT22;9384;48.044;11.616;2022-11-23T01:22:50;3.80;99.90
18511;DHT22;9384;48.044;11.616;2022-11-23T01:25:17;3.80;99.90
18511;DHT22;9384;48.044;11.616;2022-11-23T01:27:45;3.80;99.90
18511;DHT22;9384;48.044;11.616;2022-11-23T01:30:13;3.70;99.90
18511;DHT22;9384;48.044;11.616;2022-11-23T01:32:40;3.80;99.90
18511;DHT22;9384;48.044;11.616;2022-11-23T01:35:07;3.70;99.90
18511;DHT22;9384;48.044;11.616;2022-11-23T01:37:34;3.70;99.90
18511;DHT22;9384;48.044;11.616;2022-11-23T01:40:01;3.70;99.90
18511;DHT22;9384;48.044;11.616;2022-11-23T01:42:42;3.70;99.90
18511;DHT22;9384;48.044;11.616;2022-11-23T01:45:34;3.70;99.90
18511;DHT22;9384;48.044;11.616;2022-11-23T01:48:02;3.70;99.90
18511;DHT22;9384;48.044;11.616;2022-11-23T01:50:30;3.60;99.90
18511;DHT22;9384;48.044;11.616;2022-11-23T01:52:57;3.60;99.90
18511;DHT22;9384;48.044;11.616;2022-11-23T01:55:24;3.60;99.90
18511;DHT22;9384;48.044;11.616;2022-11-23T01:57:52;3.60;99.90
18511;DHT22;9384;48.044;11.616;2022-11-23T02:00:19;3.50;99.90
18511;DHT22;9384;48.044;11.616;2022-11-23T02:02:52;3.50;99.90
18511;DHT22;9384;48.044;11.616;2022-11-23T02:05:24;3.50;99.90
18511;DHT22;9384;48.044;11.616;2022-11-23T02:07:53;3.50;99.90
18511;DHT22;9384;48.044;11.616;2022-11-23T02:10:20;3.40;99.90
18511;DHT22;9384;48.044;11.616;2022-11-23T02:12:48;3.50;99.90
18511;DHT22;9384;48.044;11.616;2022-11-23T02:15:15;3.40;99.90
18511;DHT22;9384;48.044;11.616;2022-11-23T02:17:42;3.40;99.90
18511;DHT22;9384;48.044;11.616;2022-11-23T02:20:12;3.40;99.90
18511;DHT22;9384;48.044;11.616;2022-11-23T02:22:46;3.40;99.90
18511;DHT22;9384;48.044;11.616;2022-11-23T02:25:21;3.40;99.90
18511;DHT22;9384;48.044;11.616;2022-11-23T02:27:52;3.40;99.90
18511;DHT22;9384;48.044;11.616;2022-11-23T02:30:19;3.50;99.90
18511;DHT22;9384;48.044;11.616;2022-11-23T02:32:46;3.50;99.90
18511;DHT22;9384;48.044;11.616;2022-11-23T02:35:13;3.50;99.90
18511;DHT22;9384;48.044;11.616;2022-11-23T02:37:41;3.50;99.90
18511;DHT22;9384;48.044;11.616;2022-11-23T02:40:15;3.40;99.90
18511;DHT22;9384;48.044;11.616;2022-11-23T02:42:47;3.40;99.90
18511;DHT22;9384;48.044;11.616;2022-11-23T02:45:23;3.40;99.90
18511;DHT22;9384;48.044;11.616;2022-11-23T02:47:52;3.40;99.90
18511;DHT22;9384;48.044;11.616;2022-11-23T02:50:19;3.40;99.90
18511;DHT22;9384;48.044;11.616;2022-11-23T02:52:45;3.40;99.90
18511;DHT22;9384;48.044;11.616;2022-11-23T02:55:12;3.30;99.90
18511;DHT22;9384;48.044;11.616;2022-11-23T02:57:39;3.30;99.90
18511;DHT22;9384;48.044;11.616;2022-11-23T03:00:07;3.30;99.90
18511;DHT22;9384;48.044;11.616;2022-11-23T03:02:36;3.30;99.90
18511;DHT22;9384;48.044;11.616;2022-11-23T03:05:03;3.20;99.90
18511;DHT22;9384;48.044;11.616;2022-11-23T03:07:29;3.20;99.90
18511;DHT22;9384;48.044;11.616;2022-11-23T03:09:56;3.20;99.90
18511;DHT22;9384;48.044;11.616;2022-11-23T03:12:23;3.20;99.90
18511;DHT22;9384;48.044;11.616;2022-11-23T03:14:50;3.20;99.90
18511;DHT22;9384;48.044;11.616;2022-11-23T03:17:17;3.20;99.90
18511;DHT22;9384;48.044;11.616;2022-11-23T03:19:45;3.20;99.90
18511;DHT22;9384;48.044;11.616;2022-11-23T03:22:12;3.10;99.90
18511;DHT22;9384;48.044;11.616;2022-11-23T03:24:38;3.20;99.90
18511;DHT22;9384;48.044;11.616;2022-11-23T03:27:19;3.10;99.90
18511;DHT22;9384;48.044;11.616;2022-11-23T03:29:46;3.10;99.90
18511;DHT22;9384;48.044;11.616;2022-11-23T03:32:13;3.10;99.90
18511;DHT22;9384;48.044;11.616;2022-11-23T03:34:40;3.00;99.90
18511;DHT22;9384;48.044;11.616;2022-11-23T03:37:08;3.00;99.90
18511;DHT22;9384;48.044;11.616;2022-11-23T03:39:34;3.00;99.90
18511;DHT22;9384;48.044;11.616;2022-11-23T03:42:01;3.00;99.90
18511;DHT22;9384;48.044;11.616;2022-11-23T03:44:28;2.90;99.90
18511;DHT22;9384;48.044;11.616;2022-11-23T03:46:55;2.90;99.90
18511;DHT22;9384;48.044;11.616;2022-11-23T03:49:21;2.90;99.90
18511;DHT22;9384;48.044;11.616;2022-11-23T03:51:48;2.90;99.90
18511;DHT22;9384;48.044;11.616;2022-11-23T03:54:16;2.80;99.90
18511;DHT22;9384;48.044;11.616;2022-11-23T03:56:43;2.80;99.90
18511;DHT22;9384;48.044;11.616;2022-11-23T03:59:10;2.80;99.90
18511;DHT22;9384;48.044;11.616;2022-11-23T04:01:37;2.80;99.90
18511;DHT22;9384;48.044;11.616;2022-11-23T04:04:04;2.70;99.90
18511;DHT22;9384;48.044;11.616;2022-11-23T04:06:30;2.70;99.90
18511;DHT22;9384;48.044;11.616;2022-11-23T04:08:57;2.70;99.90
18511;DHT22;9384;48.044;11.616;2022-11-23T04:11:25;2.70;99.90
18511;DHT22;9384;48.044;11.616;2022-11-23T04:13:52;2.70;99.90
18511;DHT22;9384;48.044;11.616;2022-11-23T04:16:19;2.70;99.90
18511;DHT22;9384;48.044;11.616;2022-11-23T04:18:46;2.70;99.90
18511;DHT22;9384;48.044;11.616;2022-11-23T04:21:12;2.70;99.90
18511;DHT22;9384;48.044;11.616;2022-11-23T04:23:39;2.70;99.90
18511;DHT22;9384;48.044;11.616;2022-11-23T04:26:06;2.70;99.90
18511;DHT22;9384;48.044;11.616;2022-11-23T04:28:34;2.70;99.90
18511;DHT22;9384;48.044;11.616;2022-11-23T04:31:01;2.70;99.90
18511;DHT22;9384;48.044;11.616;2022-11-23T04:33:27;2.70;99.90
18511;DHT22;9384;48.044;11.616;2022-11-23T04:35:56;2.70;99.90
18511;DHT22;9384;48.044;11.616;2022-11-23T04:38:22;2.70;99.90
18511;DHT22;9384;48.044;11.616;2022-11-23T04:40:50;2.70;99.90
18511;DHT22;9384;48.044;11.616;2022-11-23T04:43:17;2.70;99.90
18511;DHT22;9384;48.044;11.616;2022-11-23T04:45:45;2.60;99.90
18511;DHT22;9384;48.044;11.616;2022-11-23T04:48:12;2.60;99.90
18511;DHT22;9384;48.044;11.616;2022-11-23T04:50:39;2.60;99.90
18511;DHT22;9384;48.044;11.616;2022-11-23T04:53:06;2.60;99.90
18511;DHT22;9384;48.044;11.616;2022-11-23T04:55:33;2.60;99.90
18511;DHT22;9384;48.044;11.616;2022-11-23T04:58:00;2.60;99.90
18511;DHT22;9384;48.044;11.616;2022-11-23T05:00:27;2.50;99.90
18511;DHT22;9384;48.044;11.616;2022-11-23T05:02:58;2.50;99.90
18511;DHT22;9384;48.044;11.616;2022-11-23T05:05:25;2.50;99.90
18511;DHT22;9384;48.044;11.616;2022-11-23T05:07:52;2.50;99.90
18511;DHT22;9384;48.044;11.616;2022-11-23T05:10:18;2.60;99.90
18511;DHT22;9384;48.044;11.616;2022-11-23T05:12:45;2.60;99.90
18511;DHT22;9384;48.044;11.616;2022-11-23T05:15:12;2.60;99.90
18511;DHT22;9384;48.044;11.616;2022-11-23T05:17:39;2.60;99.90
18511;DHT22;9384;48.044;11.616;2022-11-23T05:20:09;2.60;99.90
18511;DHT22;9384;48.044;11.616;2022-11-23T05:22:36;2.60;99.90
18511;DHT22;9384;48.044;11.616;2022-11-23T05:25:03;2.60;99.90
18511;DHT22;9384;48.044;11.616;2022-11-23T05:27:29;2.60;99.90
18511;DHT22;9384;48.044;11.616;2022-11-23T05:29:56;2.60;99.90
18511;DHT22;9384;48.044;11.616;2022-11-23T05:32:23;2.70;99.90
18511;DHT22;9384;48.044;11.616;2022-11-23T05:34:50;2.70;99.90
18511;DHT22;9384;48.044;11.616;2022-11-23T05:37:18;2.60;99.90
18511;DHT22;9384;48.044;11.616;2022-11-23T05:39:45;2.70;99.90
18511;DHT22;9384;48.044;11.616;2022-11-23T05:42:11;2.70;99.90
18511;DHT22;9384;48.044;11.616;2022-11-23T05:44:38;2.70;99.90
18511;DHT22;9384;48.044;11.616;2022-11-23T05:47:05;2.70;99.90
18511;DHT22;9384;48.044;11.616;2022-11-23T05:49:32;2.70;99.90
18511;DHT22;9384;48.044;11.616;2022-11-23T05:51:59;2.70;99.90
18511;DHT22;9384;48.044;11.616;2022-11-23T05:54:27;2.70;99.90
18511;DHT22;9384;48.044;11.616;2022-11-23T05:56:54;2.70;99.90
18511;DHT22;9384;48.044;11.616;2022-11-23T05:59:21;2.70;99.90
18511;DHT22;9384;48.044;11.616;2022-11-23T06:01:47;2.70;99.90
18511;DHT22;9384;48.044;11.616;2022-11-23T06:04:14;2.70;99.90
18511;DHT22;9384;48.044;11.616;2022-11-23T06:06:41;2.70;99.90
18511;DHT22;9384;48.044;11.616;2022-11-23T06:09:08;2.70;99.90
18511;DHT22;9384;48.044;11.616;2022-11-23T06:11:37;2.70;99.90
18511;DHT22;9384;48.044;11.616;2022-11-23T06:14:03;2.70;99.90
18511;DHT22;9384;48.044;11.616;2022-11-23T06:16:31;2.70;99.90
18511;DHT22;9384;48.044;11.616;2022-11-23T06:18:57;2.70;99.90
18511;DHT22;9384;48.044;11.616;2022-11-23T06:21:24;2.70;99.90
18511;DHT22;9384;48.044;11.616;2022-11-23T06:23:51;2.60;99.90
18511;DHT22;9384;48.044;11.616;2022-11-23T06:26:18;2.60;99.90
18511;DHT22;9384;48.044;11.616;2022-11-23T06:28:46;2.60;99.90
18511;DHT22;9384;48.044;11.616;2022-11-23T06:31:13;2.60;99.90
18511;DHT22;9384;48.044;11.616;2022-11-23T06:33:40;2.60;99.90
18511;DHT22;9384;48.044;11.616;2022-11-23T06:36:08;2.60;99.90
18511;DHT22;9384;48.044;11.616;2022-11-23T06:38:36;2.60;99.90
18511;DHT22;9384;48.044;11.616;2022-11-23T06:41:03;2.60;99.90
18511;DHT22;9384;48.044;11.616;2022-11-23T06:43:30;2.60;99.90
18511;DHT22;9384;48.044;11.616;2022-11-23T06:46:02;2.60;99.90
18511;DHT22;9384;48.044;11.616;2022-11-23T06:48:29;2.60;99.90
18511;DHT22;9384;48.044;11.616;2022-11-23T06:50:57;2.60;99.90
18511;DHT22;9384;48.044;11.616;2022-11-23T06:53:24;2.60;99.90
18511;DHT22;9384;48.044;11.616;2022-11-23T06:55:51;2.60;99.90
18511;DHT22;9384;48.044;11.616;2022-11-23T06:58:18;2.60;99.90
18511;DHT22;9384;48.044;11.616;2022-11-23T07:00:44;2.60;99.90
18511;DHT22;9384;48.044;11.616;2022-11-23T07:03:18;2.70;99.90
18511;DHT22;9384;48.044;11.616;2022-11-23T07:05:45;2.70;99.90
18511;DHT22;9384;48.044;11.616;2022-11-23T07:08:12;2.80;99.90
18511;DHT22;9384;48.044;11.616;2022-11-23T07:10:39;2.80;99.90
18511;DHT22;9384;48.044;11.616;2022-11-23T07:13:06;2.90;99.90
18511;DHT22;9384;48.044;11.616;2022-11-23T07:15:34;2.90;99.90
18511;DHT22;9384;48.044;11.616;2022-11-23T07:18:01;3.00;99.90
18511;DHT22;9384;48.044;11.616;2022-11-23T07:20:30;3.00;99.90
18511;DHT22;9384;48.044;11.616;2022-11-23T07:23:00;3.10;99.90
18511;DHT22;9384;48.044;11.616;2022-11-23T07:25:27;3.20;99.90
18511;DHT22;9384;48.044;11.616;2022-11-23T07:27:55;3.20;99.90
18511;DHT22;9384;48.044;11.616;2022-11-23T07:30:22;3.20;99.90
18511;DHT22;9384;48.044;11.616;2022-11-23T07:32:49;3.30;99.90
18511;DHT22;9384;48.044;11.616;2022-11-23T07:35:16;3.30;99.90
18511;DHT22;9384;48.044;11.616;2022-11-23T07:37:44;3.30;99.90
18511;DHT22;9384;48.044;11.616;2022-11-23T07:40:11;3.30;99.90
18511;DHT22;9384;48.044;11.616;2022-11-23T07:42:38;3.30;99.90
18511;DHT22;9384;48.044;11.616;2022-11-23T07:45:06;3.40;99.90
18511;DHT22;9384;48.044;11.616;2022-11-23T07:47:33;3.40;99.90
18511;DHT22;9384;48.044;11.616;2022-11-23T07:50:00;3.50;99.90
18511;DHT22;9384;48.044;11.616;2022-11-23T07:52:27;3.50;99.90
18511;DHT22;9384;48.044;11.616;2022-11-23T07:54:55;3.60;99.90
18511;DHT22;9384;48.044;11.616;2022-11-23T07:57:22;3.60;99.90
18511;DHT22;9384;48.044;11.616;2022-11-23T07:59:49;3.70;99.90
18511;DHT22;9384;48.044;11.616;2022-11-23T08:02:15;3.70;99.90
18511;DHT22;9384;48.044;11.616;2022-11-23T08:04:42;3.80;99.90
18511;DHT22;9384;48.044;11.616;2022-11-23T08:07:09;3.90;99.90
18511;DHT22;9384;48.044;11.616;2022-11-23T08:09:36;4.00;99.90
18511;DHT22;9384;48.044;11.616;2022-11-23T08:12:05;4.10;99.90
18511;DHT22;9384;48.044;11.616;2022-11-23T08:14:32;4.30;99.90
18511;DHT22;9384;48.044;11.616;2022-11-23T08:16:59;4.30;99.90
18511;DHT22;9384;48.044;11.616;2022-11-23T08:19:25;4.30;99.90
18511;DHT22;9384;48.044;11.616;2022-11-23T08:21:52;4.20;99.90
18511;DHT22;9384;48.044;11.616;2022-11-23T08:24:19;4.30;99.90
18511;DHT22;9384;48.044;11.616;2022-11-23T08:26:46;4.30;99.90
18511;DHT22;9384;48.044;11.616;2022-11-23T08:29:14;4.40;99.90
18511;DHT22;9384;48.044;11.616;2022-11-23T08:31:41;4.40;99.90
18511;DHT22;9384;48.044;11.616;2022-11-23T08:34:08;4.50;99.90
18511;DHT22;9384;48.044;11.616;2022-11-23T08:36:36;4.60;99.90
18511;DHT22;9384;48.044;11.616;2022-11-23T08:39:02;4.70;99.90
18511;DHT22;9384;48.044;11.616;2022-11-23T08:41:29;4.70;99.90
18511;DHT22;9384;48.044;11.616;2022-11-23T08:43:56;4.80;99.90
18511;DHT22;9384;48.044;11.616;2022-11-23T08:46:24;5.00;99.90
18511;DHT22;9384;48.044;11.616;2022-11-23T08:48:51;5.10;99.90
18511;DHT22;9384;48.044;11.616;2022-11-23T08:51:18;5.10;99.90
18511;DHT22;9384;48.044;11.616;2022-11-23T08:53:47;5.20;99.90
18511;DHT22;9384;48.044;11.616;2022-11-23T08:56:14;5.20;99.90
18511;DHT22;9384;48.044;11.616;2022-11-23T08:58:41;5.30;99.90
18511;DHT22;9384;48.044;11.616;2022-11-23T09:01:09;5.40;99.90
18511;DHT22;9384;48.044;11.616;2022-11-23T09:03:38;5.30;99.90
18511;DHT22;9384;48.044;11.616;2022-11-23T09:06:05;5.30;99.90
18511;DHT22;9384;48.044;11.616;2022-11-23T09:08:32;5.30;99.90
18511;DHT22;9384;48.044;11.616;2022-11-23T09:11:00;5.40;99.90
18511;DHT22;9384;48.044;11.616;2022-11-23T09:13:27;5.40;99.90
18511;DHT22;9384;48.044;11.616;2022-11-23T09:15:56;5.40;99.90
18511;DHT22;9384;48.044;11.616;2022-11-23T09:18:24;5.40;99.90
18511;DHT22;9384;48.044;11.616;2022-11-23T09:20:52;5.40;99.90
18511;DHT22;9384;48.044;11.616;2022-11-23T09:23:19;5.40;99.90
18511;DHT22;9384;48.044;11.616;2022-11-23T09:25:46;5.50;99.90
18511;DHT22;9384;48.044;11.616;2022-11-23T09:28:14;5.50;99.90
18511;DHT22;9384;48.044;11.616;2022-11-23T09:30:44;5.60;99.90
18511;DHT22;9384;48.044;11.616;2022-11-23T09:33:11;5.60;99.90
18511;DHT22;9384;48.044;11.616;2022-11-23T09:35:39;5.70;99.90
18511;DHT22;9384;48.044;11.616;2022-11-23T09:38:07;5.80;99.90
18511;DHT22;9384;48.044;11.616;2022-11-23T09:40:37;5.80;99.90
18511;DHT22;9384;48.044;11.616;2022-11-23T09:43:34;5.80;99.90
18511;DHT22;9384;48.044;11.616;2022-11-23T09:46:10;5.80;99.90
18511;DHT22;9384;48.044;11.616;2022-11-23T09:48:54;5.80;99.90
18511;DHT22;9384;48.044;11.616;2022-11-23T09:51:22;5.90;99.90
18511;DHT22;9384;48.044;11.616;2022-11-23T09:53:53;6.00;99.90
18511;DHT22;9384;48.044;11.616;2022-11-23T09:56:23;6.30;99.90
18511;DHT22;9384;48.044;11.616;2022-11-23T14:26:41;10.20;99.90
18511;DHT22;9384;48.044;11.616;2022-11-23T14:37:19;9.70;94.90
18511;DHT22;9384;48.044;11.616;2022-11-23T14:40:09;8.60;98.00
18511;DHT22;9384;48.044;11.616;2022-11-23T14:42:41;8.50;98.20
18511;DHT22;9384;48.044;11.616;2022-11-23T14:47:40;8.50;98.50
18511;DHT22;9384;48.044;11.616;2022-11-23T14:50:19;8.20;99.30
18511;DHT22;9384;48.044;11.616;2022-11-23T14:52:46;8.20;99.50
18511;DHT22;9384;48.044;11.616;2022-11-23T14:55:18;8.10;99.70
18511;DHT22;9384;48.044;11.616;2022-11-23T14:57:46;8.10;99.90
18511;DHT22;9384;48.044;11.616;2022-11-23T15:00:25;8.10;99.90
18511;DHT22;9384;48.044;11.616;2022-11-23T15:02:54;8.00;99.90
18511;DHT22;9384;48.044;11.616;2022-11-23T15:05:24;8.00;99.90
18511;DHT22;9384;48.044;11.616;2022-11-23T15:07:55;7.90;99.90
18511;DHT22;9384;48.044;11.616;2022-11-23T15:10:33;7.80;99.90
18511;DHT22;9384;48.044;11.616;2022-11-23T15:13:21;7.70;99.90
18511;DHT22;9384;48.044;11.616;2022-11-23T15:15:50;7.60;99.90
18511;DHT22;9384;48.044;11.616;2022-11-23T15:18:28;7.60;99.90
18511;DHT22;9384;48.044;11.616;2022-11-23T15:20:57;7.40;99.90
18511;DHT22;9384;48.044;11.616;2022-11-23T15:23:32;7.40;99.90
18511;DHT22;9384;48.044;11.616;2022-11-23T15:26:04;7.30;99.90
18511;DHT22;9384;48.044;11.616;2022-11-23T15:28:34;7.20;99.90
18511;DHT22;9384;48.044;11.616;2022-11-23T15:33:45;7.10;99.90
18511;DHT22;9384;48.044;11.616;2022-11-23T15:36:13;7.00;99.90
18511;DHT22;9384;48.044;11.616;2022-11-23T15:38:42;6.90;99.90
18511;DHT22;9384;48.044;11.616;2022-11-23T15:41:10;6.80;99.90
18511;DHT22;9384;48.044;11.616;2022-11-23T15:43:50;6.70;99.90
18511;DHT22;9384;48.044;11.616;2022-11-23T15:48:47;6.60;99.90
18511;DHT22;9384;48.044;11.616;2022-11-23T15:51:26;6.50;99.90
18511;DHT22;9384;48.044;11.616;2022-11-23T15:56:26;6.40;99.90
18511;DHT22;9384;48.044;11.616;2022-11-23T15:58:53;6.20;99.90
18511;DHT22;9384;48.044;11.616;2022-11-23T16:01:21;6.10;99.90
18511;DHT22;9384;48.044;11.616;2022-11-23T16:03:49;6.00;99.90
18511;DHT22;9384;48.044;11.616;2022-11-23T16:06:27;5.90;99.90
18511;DHT22;9384;48.044;11.616;2022-11-23T16:08:58;5.80;99.90
18511;DHT22;9384;48.044;11.616;2022-11-23T16:11:33;5.80;99.90
18511;DHT22;9384;48.044;11.616;2022-11-23T16:16:38;5.60;99.90
18511;DHT22;9384;48.044;11.616;2022-11-23T16:19:19;5.50;99.90
18511;DHT22;9384;48.044;11.616;2022-11-23T16:21:47;5.40;99.90
18511;DHT22;9384;48.044;11.616;2022-11-23T16:24:18;5.30;99.90
18511;DHT22;9384;48.044;11.616;2022-11-23T16:26:47;5.20;99.90
18511;DHT22;9384;48.044;11.616;2022-11-23T16:29:20;5.10;99.90
18511;DHT22;9384;48.044;11.616;2022-11-23T16:31:52;5.00;99.90
18511;DHT22;9384;48.044;11.616;2022-11-23T16:34:19;5.00;99.90
18511;DHT22;9384;48.044;11.616;2022-11-23T16:36:46;4.90;99.90
18511;DHT22;9384;48.044;11.616;2022-11-23T16:39:13;4.90;99.90
18511;DHT22;9384;48.044;11.616;2022-11-23T16:41:40;4.70;99.90
18511;DHT22;9384;48.044;11.616;2022-11-23T16:44:08;4.60;99.90
18511;DHT22;9384;48.044;11.616;2022-11-23T16:46:35;4.60;99.90
18511;DHT22;9384;48.044;11.616;2022-11-23T16:49:01;4.50;99.90
18511;DHT22;9384;48.044;11.616;2022-11-23T16:51:28;4.40;99.90
18511;DHT22;9384;48.044;11.616;2022-11-23T16:53:56;4.30;99.90
18511;DHT22;9384;48.044;11.616;2022-11-23T16:56:24;4.20;99.90
18511;DHT22;9384;48.044;11.616;2022-11-23T16:58:52;4.20;99.90
18511;DHT22;9384;48.044;11.616;2022-11-23T17:01:22;4.10;99.90
18511;DHT22;9384;48.044;11.616;2022-11-23T17:03:50;4.10;99.90
18511;DHT22;9384;48.044;11.616;2022-11-23T17:06:18;4.00;99.90
18511;DHT22;9384;48.044;11.616;2022-11-23T17:08:48;3.90;99.90
18511;DHT22;9384;48.044;11.616;2022-11-23T17:11:17;3.80;99.90
18511;DHT22;9384;48.044;11.616;2022-11-23T17:13:46;3.80;99.90
18511;DHT22;9384;48.044;11.616;2022-11-23T17:16:15;3.80;99.90
18511;DHT22;9384;48.044;11.616;2022-11-23T17:18:44;3.80;99.90
18511;DHT22;9384;48.044;11.616;2022-11-23T17:21:11;3.70;99.90
18511;DHT22;9384;48.044;11.616;2022-11-23T17:23:38;3.70;99.90
18511;DHT22;9384;48.044;11.616;2022-11-23T17:26:20;3.70;99.90
18511;DHT22;9384;48.044;11.616;2022-11-23T17:28:50;3.60;99.90
18511;DHT22;9384;48.044;11.616;2022-11-23T17:31:17;3.50;99.90
18511;DHT22;9384;48.044;11.616;2022-11-23T17:33:45;3.50;99.90
18511;DHT22;9384;48.044;11.616;2022-11-23T17:36:12;3.40;99.90
18511;DHT22;9384;48.044;11.616;2022-11-23T17:38:38;3.30;99.90
18511;DHT22;9384;48.044;11.616;2022-11-23T17:41:09;3.20;99.90
18511;DHT22;9384;48.044;11.616;2022-11-23T17:43:35;3.00;99.90
18511;DHT22;9384;48.044;11.616;2022-11-23T17:46:02;3.00;99.90
18511;DHT22;9384;48.044;11.616;2022-11-23T17:48:29;3.00;99.90
18511;DHT22;9384;48.044;11.616;2022-11-23T17:50:59;2.90;99.90
18511;DHT22;9384;48.044;11.616;2022-11-23T17:53:26;3.00;99.90
18511;DHT22;9384;48.044;11.616;2022-11-23T17:55:53;3.00;99.90
18511;DHT22;9384;48.044;11.616;2022-11-23T17:58:20;3.00;99.90
18511;DHT22;9384;48.044;11.616;2022-11-23T18:00:47;3.00;99.90
18511;DHT22;9384;48.044;11.616;2022-11-23T18:03:13;3.00;99.90
18511;DHT22;9384;48.044;11.616;2022-11-23T18:05:40;2.90;99.90
18511;DHT22;9384;48.044;11.616;2022-11-23T18:08:09;2.90;99.90
18511;DHT22;9384;48.044;11.616;2022-11-23T18:10:36;2.90;99.90
18511;DHT22;9384;48.044;11.616;2022-11-23T18:13:03;2.90;99.90
18511;DHT22;9384;48.044;11.616;2022-11-23T18:15:30;2.80;99.90
18511;DHT22;9384;48.044;11.616;2022-11-23T18:17:57;2.80;99.90
18511;DHT22;9384;48.044;11.616;2022-11-23T18:20:24;2.80;99.90
18511;DHT22;9384;48.044;11.616;2022-11-23T18:22:50;2.70;99.90
18511;DHT22;9384;48.044;11.616;2022-11-23T18:25:19;2.60;99.90
18511;DHT22;9384;48.044;11.616;2022-11-23T18:27:46;2.50;99.90
18511;DHT22;9384;48.044;11.616;2022-11-23T18:30:14;2.50;99.90
18511;DHT22;9384;48.044;11.616;2022-11-23T18:32:41;2.50;99.90
18511;DHT22;9384;48.044;11.616;2022-11-23T18:35:09;2.50;99.90
18511;DHT22;9384;48.044;11.616;2022-11-23T18:37:36;2.40;99.90
18511;DHT22;9384;48.044;11.616;2022-11-23T18:40:03;2.50;99.90
18511;DHT22;9384;48.044;11.616;2022-11-23T18:42:31;2.50;99.90
18511;DHT22;9384;48.044;11.616;2022-11-23T18:44:58;2.40;99.90
18511;DHT22;9384;48.044;11.616;2022-11-23T18:47:26;2.40;99.90
18511;DHT22;9384;48.044;11.616;2022-11-23T18:49:52;2.40;99.90
18511;DHT22;9384;48.044;11.616;2022-11-23T18:52:19;2.20;99.90
18511;DHT22;9384;48.044;11.616;2022-11-23T18:54:46;2.20;99.90
18511;DHT22;9384;48.044;11.616;2022-11-23T18:57:13;2.00;99.90
18511;DHT22;9384;48.044;11.616;2022-11-23T18:59:42;2.00;99.90
18511;DHT22;9384;48.044;11.616;2022-11-23T19:02:09;1.90;99.90
18511;DHT22;9384;48.044;11.616;2022-11-23T19:04:36;1.90;99.90
18511;DHT22;9384;48.044;11.616;2022-11-23T19:07:04;1.90;99.90
18511;DHT22;9384;48.044;11.616;2022-11-23T19:09:31;2.00;99.90
18511;DHT22;9384;48.044;11.616;2022-11-23T19:11:58;2.00;99.90
18511;DHT22;9384;48.044;11.616;2022-11-23T19:14:25;2.10;99.90
18511;DHT22;9384;48.044;11.616;2022-11-23T19:16:54;2.10;99.90
18511;DHT22;9384;48.044;11.616;2022-11-23T19:19:20;2.00;99.90
18511;DHT22;9384;48.044;11.616;2022-11-23T19:21:47;1.90;99.90
18511;DHT22;9384;48.044;11.616;2022-11-23T19:24:14;1.90;99.90
18511;DHT22;9384;48.044;11.616;2022-11-23T19:26:41;1.90;99.90
18511;DHT22;9384;48.044;11.616;2022-11-23T19:29:08;1.90;99.90
18511;DHT22;9384;48.044;11.616;2022-11-23T19:31:35;2.00;99.90
18511;DHT22;9384;48.044;11.616;2022-11-23T19:34:04;2.10;99.90
18511;DHT22;9384;48.044;11.616;2022-11-23T19:36:32;2.10;99.90
18511;DHT22;9384;48.044;11.616;2022-11-23T19:39:02;2.20;99.90
18511;DHT22;9384;48.044;11.616;2022-11-23T19:41:29;2.20;99.90
18511;DHT22;9384;48.044;11.616;2022-11-23T19:43:57;2.30;99.90
18511;DHT22;9384;48.044;11.616;2022-11-23T19:46:24;2.40;99.90
18511;DHT22;9384;48.044;11.616;2022-11-23T19:48:53;2.60;99.90
18511;DHT22;9384;48.044;11.616;2022-11-23T19:51:23;2.80;99.90
18511;DHT22;9384;48.044;11.616;2022-11-23T19:53:50;3.00;99.90
18511;DHT22;9384;48.044;11.616;2022-11-23T19:56:19;3.10;99.90
18511;DHT22;9384;48.044;11.616;2022-11-23T19:58:50;3.10;99.90
18511;DHT22;9384;48.044;11.616;2022-11-23T20:01:18;3.20;99.90
18511;DHT22;9384;48.044;11.616;2022-11-23T20:03:47;3.30;99.90
18511;DHT22;9384;48.044;11.616;2022-11-23T20:06:15;3.20;99.90
18511;DHT22;9384;48.044;11.616;2022-11-23T20:08:44;3.20;99.90
18511;DHT22;9384;48.044;11.616;2022-11-23T20:11:12;3.20;99.90
18511;DHT22;9384;48.044;11.616;2022-11-23T20:13:39;3.20;99.90
18511;DHT22;9384;48.044;11.616;2022-11-23T20:16:08;3.20;99.90
18511;DHT22;9384;48.044;11.616;2022-11-23T20:18:36;3.30;99.90
18511;DHT22;9384;48.044;11.616;2022-11-23T20:21:09;3.30;99.90
18511;DHT22;9384;48.044;11.616;2022-11-23T20:23:37;3.40;99.90
18511;DHT22;9384;48.044;11.616;2022-11-23T20:26:05;3.50;99.90
18511;DHT22;9384;48.044;11.616;2022-11-23T20:28:33;3.50;99.90
18511;DHT22;9384;48.044;11.616;2022-11-23T20:31:02;3.50;99.90
18511;DHT22;9384;48.044;11.616;2022-11-23T20:33:29;3.50;99.90
18511;DHT22;9384;48.044;11.616;2022-11-23T20:36:06;3.50;99.90
18511;DHT22;9384;48.044;11.616;2022-11-23T20:38:35;3.50;99.90
18511;DHT22;9384;48.044;11.616;2022-11-23T20:41:14;3.50;99.90